Time;durP1;ratioP1;P1;durP2;ratioP2;P2;SDS_P1;SDS_P2;PMS_P1;PMS_P2;Temp;Humidity;BMP_temperature;BMP_pressure;BME280_temperature;BME280_humidity;BME280_pressure;Samples;Min_cycle;Max_cycle;Signal;HPM_P1;HPM_P2
2023/06/06 00:00:53;;;;;;;9.55;6.15;;;18.20;83.00;;;;;;4942653;29;20031;-94
2023/06/06 00:03:21;;;;;;;14.25;6.65;;;18.20;83.10;;;;;;4961671;28;20031;-93
2023/06/06 00:05:59;;;;;;;10.50;6.25;;;18.10;83.20;;;;;;4943685;29;20049;-94
2023/06/06 00:08:28;;;;;;;10.70;6.90;;;18.00;83.50;;;;;;4941846;29;20130;-94
2023/06/06 00:11:01;;;;;;;10.02;6.60;;;18.00;83.50;;;;;;4956429;28;20023;-95
2023/06/06 00:13:32;;;;;;;13.02;6.65;;;18.00;83.60;;;;;;4942275;29;20044;-95
2023/06/06 00:15:58;;;;;;;10.00;6.45;;;17.90;83.60;;;;;;4956463;28;20034;-95
2023/06/06 00:18:27;;;;;;;12.85;6.40;;;17.90;83.70;;;;;;4956813;28;20031;-93
2023/06/06 00:20:54;;;;;;;9.40;6.72;;;17.80;83.70;;;;;;4958769;28;20032;-94
2023/06/06 00:23:23;;;;;;;12.70;6.13;;;17.80;84.00;;;;;;4958889;28;20058;-94
2023/06/06 00:25:51;;;;;;;12.60;6.78;;;17.70;84.00;;;;;;4958306;28;20048;-94
2023/06/06 00:28:16;;;;;;;9.45;5.90;;;17.70;84.00;;;;;;4957920;28;20019;-95
2023/06/06 00:30:49;;;;;;;12.32;6.85;;;17.60;84.00;;;;;;4959097;28;20046;-95
2023/06/06 00:33:15;;;;;;;9.85;6.47;;;17.60;84.20;;;;;;4942391;29;20111;-93
2023/06/06 00:35:46;;;;;;;10.48;7.00;;;17.50;84.30;;;;;;4943353;29;20118;-94
2023/06/06 00:38:12;;;;;;;10.13;6.35;;;17.50;84.30;;;;;;4942473;29;20035;-93
2023/06/06 00:41:09;;;;;;;10.30;6.00;;;17.40;84.30;;;;;;4941616;29;20035;-95
2023/06/06 00:43:35;;;;;;;10.85;6.35;;;17.40;84.60;;;;;;4941938;29;20031;-94
2023/06/06 00:46:01;;;;;;;11.52;6.55;;;17.40;84.70;;;;;;4941978;29;20507;-93
2023/06/06 00:48:27;;;;;;;9.05;5.75;;;17.30;84.80;;;;;;4957867;28;20019;-94
2023/06/06 00:50:55;;;;;;;14.18;6.40;;;17.30;85.00;;;;;;4942455;29;20031;-93
2023/06/06 00:53:21;;;;;;;10.05;6.53;;;17.20;85.00;;;;;;4942684;29;20046;-95
2023/06/06 00:55:53;;;;;;;10.98;6.50;;;17.20;85.20;;;;;;4942110;29;20027;-93
2023/06/06 00:58:19;;;;;;;9.32;5.75;;;17.20;85.30;;;;;;4958889;28;20461;-94
2023/06/06 01:00:46;;;;;;;9.55;5.65;;;17.10;85.30;;;;;;4957402;28;20035;-94
2023/06/06 01:03:19;;;;;;;11.23;6.63;;;17.10;85.60;;;;;;4955587;28;20494;-93
2023/06/06 01:05:48;;;;;;;9.32;5.97;;;17.00;85.60;;;;;;4955659;29;20337;-94
2023/06/06 01:08:14;;;;;;;11.63;6.20;;;17.00;85.70;;;;;;4939356;29;20047;-94
2023/06/06 01:10:40;;;;;;;9.30;5.82;;;16.90;85.60;;;;;;4955215;28;20476;-93
2023/06/06 01:13:11;;;;;;;8.82;5.90;;;16.90;85.70;;;;;;4939886;29;20380;-94
2023/06/06 01:15:54;;;;;;;9.55;5.70;;;16.90;85.90;;;;;;4956036;29;20103;-94
2023/06/06 01:18:25;;;;;;;13.23;6.28;;;16.80;86.00;;;;;;4956617;29;20027;-94
2023/06/06 01:20:51;;;;;;;13.73;6.28;;;16.80;86.00;;;;;;4940447;29;20045;-93
2023/06/06 01:23:27;;;;;;;9.48;5.63;;;16.80;86.10;;;;;;4964997;28;20408;-93
2023/06/06 01:25:54;;;;;;;9.55;5.78;;;16.70;86.10;;;;;;4956787;29;20023;-95
2023/06/06 01:28:23;;;;;;;11.60;6.68;;;16.70;86.20;;;;;;4973780;28;20046;-93
2023/06/06 01:30:58;;;;;;;8.82;6.13;;;16.70;86.40;;;;;;4947937;29;20038;-93
2023/06/06 01:33:40;;;;;;;8.52;5.85;;;16.60;86.40;;;;;;4961019;28;20043;-94
2023/06/06 01:36:27;;;;;;;9.75;5.65;;;16.60;86.50;;;;;;4963077;29;20457;-95
2023/06/06 01:38:58;;;;;;;12.30;6.05;;;16.50;86.60;;;;;;4966983;29;20037;-94
2023/06/06 01:41:30;;;;;;;12.70;6.28;;;16.50;86.80;;;;;;4967701;28;20038;-95
2023/06/06 01:44:07;;;;;;;11.55;5.97;;;16.50;86.80;;;;;;4966109;29;20043;-94
2023/06/06 01:46:43;;;;;;;9.02;5.93;;;16.40;86.80;;;;;;4961984;28;20026;-95
2023/06/06 01:49:25;;;;;;;11.05;6.00;;;16.40;87.10;;;;;;4958734;28;20039;-94
2023/06/06 01:51:56;;;;;;;8.95;5.85;;;16.40;87.10;;;;;;4959127;29;20031;-93
2023/06/06 01:54:22;;;;;;;9.15;5.93;;;16.30;87.10;;;;;;4959378;29;20035;-93
2023/06/06 01:56:48;;;;;;;12.98;6.13;;;16.30;87.20;;;;;;4942517;29;20066;-91
2023/06/06 01:59:19;;;;;;;10.65;6.00;;;16.30;87.40;;;;;;4958252;28;20536;-94
2023/06/06 02:02:07;;;;;;;;;;;16.20;87.50;;;;;;4943690;29;20039;-93
2023/06/06 02:04:41;;;;;;;11.05;6.18;;;16.20;87.70;;;;;;4958253;29;19914;-93
2023/06/06 02:07:08;;;;;;;8.63;5.55;;;16.20;87.90;;;;;;4943733;29;20079;-93
2023/06/06 02:09:33;;;;;;;10.25;6.10;;;16.10;88.60;;;;;;4958941;28;20031;-93
2023/06/06 02:12:02;;;;;;;10.80;6.28;;;16.10;88.10;;;;;;4958763;28;20023;-94
2023/06/06 02:14:28;;;;;;;11.13;6.07;;;16.10;88.40;;;;;;4958479;28;20089;-92
2023/06/06 02:16:54;;;;;;;10.23;5.55;;;16.10;88.40;;;;;;4942401;29;20031;-92
2023/06/06 02:19:20;;;;;;;8.70;5.72;;;16.00;88.40;;;;;;4958709;28;20050;-92
2023/06/06 02:21:50;;;;;;;9.82;6.03;;;16.00;88.50;;;;;;4958767;28;20491;-92
2023/06/06 02:24:18;;;;;;;11.25;6.35;;;15.90;88.40;;;;;;4957729;28;20489;-92
2023/06/06 02:26:44;;;;;;;11.27;6.07;;;15.90;88.80;;;;;;4942403;29;20126;-94
2023/06/06 02:29:15;;;;;;;12.60;6.20;;;15.90;89.00;;;;;;4942132;29;20031;-93
2023/06/06 02:31:47;;;;;;;8.68;5.72;;;15.90;89.10;;;;;;4942295;29;20461;-93
2023/06/06 02:34:13;;;;;;;8.30;5.70;;;15.80;89.30;;;;;;4942338;29;20031;-93
2023/06/06 02:36:41;;;;;;;9.85;5.60;;;15.80;89.40;;;;;;4942830;29;20037;-94
2023/06/06 02:39:25;;;;;;;9.80;5.95;;;15.80;89.30;;;;;;4958053;28;20027;-94
2023/06/06 02:41:56;;;;;;;10.88;5.90;;;15.70;89.50;;;;;;4942525;29;20457;-94
2023/06/06 02:44:22;;;;;;;11.55;6.82;;;15.70;89.50;;;;;;4958636;28;20118;-94
2023/06/06 02:46:48;;;;;;;11.40;6.00;;;15.70;89.70;;;;;;4941709;29;20493;-92
2023/06/06 02:49:18;;;;;;;13.75;6.13;;;15.70;89.80;;;;;;4961603;28;20024;-94
2023/06/06 02:52:00;;;;;;;12.18;6.53;;;15.60;90.00;;;;;;4941120;29;20027;-92
2023/06/06 02:54:40;;;;;;;8.75;5.85;;;15.60;90.00;;;;;;4938596;29;20031;-94
2023/06/06 02:57:09;;;;;;;13.48;6.45;;;15.60;90.10;;;;;;4958294;28;20019;-92
2023/06/06 02:59:35;;;;;;;11.45;6.82;;;15.50;90.10;;;;;;4963753;28;20018;-92
2023/06/06 03:02:03;;;;;;;9.82;6.75;;;15.50;90.10;;;;;;4963283;28;20027;-94
2023/06/06 03:04:31;;;;;;;13.93;6.70;;;15.50;90.10;;;;;;4980035;28;20088;-94
2023/06/06 03:06:57;;;;;;;13.50;7.53;;;15.50;90.20;;;;;;4963745;28;20055;-93
2023/06/06 03:09:24;;;;;;;11.65;7.13;;;15.40;90.30;;;;;;4946547;28;20513;-92
2023/06/06 03:12:01;;;;;;;11.15;6.68;;;15.40;90.30;;;;;;4941482;29;20448;-94
2023/06/06 03:14:30;;;;;;;14.05;7.50;;;15.40;90.40;;;;;;4956763;29;20035;-93
2023/06/06 03:16:56;;;;;;;11.68;8.02;;;15.40;90.40;;;;;;4940798;29;20040;-93
2023/06/06 03:19:48;;;;;;;11.10;7.03;;;15.30;90.40;;;;;;4941126;29;20122;-93
2023/06/06 03:22:18;;;;;;;12.27;7.25;;;15.40;90.60;;;;;;4956909;29;20023;-93
2023/06/06 03:24:59;;;;;;;12.15;7.55;;;15.30;90.60;;;;;;4956731;28;20023;-93
2023/06/06 03:27:31;;;;;;;12.70;7.30;;;15.30;90.60;;;;;;4959003;28;20030;-93
2023/06/06 03:30:06;;;;;;;11.48;7.18;;;15.30;90.70;;;;;;4957583;28;20432;-94
2023/06/06 03:32:43;;;;;;;14.27;7.25;;;15.30;90.70;;;;;;4942607;29;20146;-92
2023/06/06 03:35:09;;;;;;;13.00;6.72;;;15.20;90.80;;;;;;4942262;29;20046;-93
2023/06/06 03:37:35;;;;;;;11.02;6.70;;;15.20;90.80;;;;;;4943572;29;20035;-93
2023/06/06 03:40:10;;;;;;;11.00;6.90;;;15.20;90.90;;;;;;4943520;29;20095;-93
2023/06/06 03:42:39;;;;;;;12.43;6.82;;;15.10;90.90;;;;;;4942499;29;20038;-94
2023/06/06 03:45:13;;;;;;;10.40;6.50;;;15.10;91.00;;;;;;4939872;29;20023;-94
2023/06/06 03:47:45;;;;;;;12.88;7.47;;;15.10;91.00;;;;;;4940791;29;20473;-94
2023/06/06 03:50:11;;;;;;;13.77;6.80;;;15.10;91.10;;;;;;4956017;29;20039;-94
2023/06/06 03:52:38;;;;;;;13.30;6.78;;;15.10;91.10;;;;;;4956987;28;20083;-94
2023/06/06 03:55:04;;;;;;;11.25;6.35;;;15.10;91.20;;;;;;4957143;28;20078;-94
2023/06/06 03:57:30;;;;;;;11.80;6.57;;;15.10;91.30;;;;;;4944750;29;20051;-94
2023/06/06 03:59:56;;;;;;;11.35;6.72;;;15.00;91.30;;;;;;4940428;29;20126;-92
2023/06/06 04:02:39;;;;;;;12.00;6.90;;;15.00;91.40;;;;;;4941984;29;20023;-93
2023/06/06 04:05:09;;;;;;;11.98;6.32;;;15.00;91.50;;;;;;4942156;29;20036;-93
2023/06/06 04:07:42;;;;;;;13.23;6.93;;;15.00;91.60;;;;;;4960580;28;20043;-92
2023/06/06 04:10:08;;;;;;;12.00;6.70;;;15.00;91.60;;;;;;4982548;28;20065;-92
2023/06/06 04:12:33;;;;;;;11.43;6.68;;;15.00;91.70;;;;;;4950627;29;20445;-94
2023/06/06 04:15:10;;;;;;;9.80;6.80;;;15.00;91.70;;;;;;4941676;29;20031;-92
2023/06/06 04:17:36;;;;;;;13.93;6.47;;;15.00;91.70;;;;;;4940293;29;20041;-93
2023/06/06 04:20:09;;;;;;;10.77;6.97;;;15.00;91.80;;;;;;4958079;28;20473;-93
2023/06/06 04:22:36;;;;;;;10.23;6.43;;;14.90;91.90;;;;;;4964429;29;20040;-93
2023/06/06 04:25:02;;;;;;;13.52;6.45;;;14.90;91.90;;;;;;4947148;29;20098;-92
2023/06/06 04:27:28;;;;;;;10.70;7.03;;;15.00;92.00;;;;;;4953825;28;20012;-92
2023/06/06 04:29:57;;;;;;;11.23;6.38;;;15.00;92.30;;;;;;4946523;29;20556;-94
2023/06/06 04:32:39;;;;;;;13.25;6.72;;;15.00;92.10;;;;;;4945564;29;20039;-92
2023/06/06 04:35:11;;;;;;;10.50;6.70;;;14.90;92.20;;;;;;4951564;29;20028;-93
2023/06/06 04:37:39;;;;;;;11.13;6.68;;;14.90;92.30;;;;;;4965994;29;20027;-93
2023/06/06 04:40:21;;;;;;;11.23;6.45;;;14.90;92.30;;;;;;4944671;29;20035;-94
2023/06/06 04:42:58;;;;;;;11.90;6.28;;;15.00;92.40;;;;;;4945613;29;20059;-91
2023/06/06 04:45:24;;;;;;;9.65;6.85;;;14.90;92.40;;;;;;4950224;29;20047;-93
2023/06/06 04:47:55;;;;;;;10.55;6.63;;;15.00;92.50;;;;;;4948844;29;20042;-94
2023/06/06 04:50:23;;;;;;;10.60;6.30;;;15.00;92.60;;;;;;4955929;28;20016;-94
2023/06/06 04:52:49;;;;;;;10.77;6.05;;;15.00;92.60;;;;;;4955881;28;20070;-94
2023/06/06 04:55:15;;;;;;;11.52;6.32;;;14.90;92.60;;;;;;4940645;29;20096;-95
2023/06/06 04:57:44;;;;;;;9.48;5.95;;;15.00;92.70;;;;;;4957467;28;20031;-94
2023/06/06 05:00:12;;;;;;;10.88;6.80;;;15.00;92.70;;;;;;4959357;28;20532;-95
2023/06/06 05:02:39;;;;;;;11.85;6.40;;;15.00;92.80;;;;;;4959597;28;20040;-95
2023/06/06 05:05:09;;;;;;;9.55;5.70;;;15.00;92.90;;;;;;4959031;28;20027;-93
2023/06/06 05:07:35;;;;;;;11.20;6.40;;;15.00;92.90;;;;;;4959200;28;20054;-94
2023/06/06 05:10:01;;;;;;;9.23;6.10;;;15.00;92.90;;;;;;4958635;28;20027;-92
2023/06/06 05:12:29;;;;;;;13.02;6.50;;;15.00;93.00;;;;;;4968191;28;20487;-94
2023/06/06 05:14:55;;;;;;;10.68;6.05;;;15.00;93.00;;;;;;4943366;29;20048;-93
2023/06/06 05:17:23;;;;;;;11.93;6.55;;;15.00;93.00;;;;;;4943167;29;20040;-93
2023/06/06 05:19:49;;;;;;;11.10;6.13;;;15.00;93.10;;;;;;4959178;28;20054;-93
2023/06/06 05:22:15;;;;;;;11.60;5.97;;;15.10;93.10;;;;;;4942561;29;20488;-93
2023/06/06 05:24:41;;;;;;;11.70;6.10;;;15.00;93.10;;;;;;4959217;28;20026;-93
2023/06/06 05:27:07;;;;;;;11.13;6.15;;;15.10;93.20;;;;;;4959294;28;20027;-92
2023/06/06 05:29:35;;;;;;;12.43;6.22;;;15.10;93.20;;;;;;4943514;29;20381;-93
2023/06/06 05:32:05;;;;;;;11.73;6.00;;;15.10;93.30;;;;;;4959046;28;20025;-92
2023/06/06 05:34:32;;;;;;;11.05;6.93;;;15.10;93.40;;;;;;4958682;28;20023;-93
2023/06/06 05:36:58;;;;;;;11.02;6.28;;;15.20;93.40;;;;;;4943156;29;20481;-94
2023/06/06 05:39:24;;;;;;;9.40;5.75;;;15.20;93.40;;;;;;4942909;29;20028;-92
2023/06/06 05:41:54;;;;;;;11.27;5.88;;;15.20;93.40;;;;;;4943301;29;20035;-94
2023/06/06 05:44:22;;;;;;;12.32;6.32;;;15.20;93.50;;;;;;4942673;29;20031;-95
2023/06/06 05:46:54;;;;;;;11.07;6.40;;;15.20;93.50;;;;;;4943033;29;20039;-94
2023/06/06 05:49:23;;;;;;;11.32;5.95;;;15.30;93.50;;;;;;4943017;29;20024;-94
2023/06/06 05:51:49;;;;;;;11.15;6.10;;;15.30;93.60;;;;;;4957879;28;20063;-94
2023/06/06 05:54:15;;;;;;;12.35;6.05;;;15.30;93.60;;;;;;4942576;29;20031;-93
2023/06/06 05:56:41;;;;;;;10.90;6.05;;;15.30;93.60;;;;;;4943219;29;20105;-93
2023/06/06 05:59:10;;;;;;;10.10;5.90;;;15.40;93.70;;;;;;4942521;29;20122;-92
2023/06/06 06:01:39;;;;;;;11.75;5.97;;;15.40;93.70;;;;;;4957713;28;20066;-92
2023/06/06 06:04:06;;;;;;;10.02;5.65;;;15.40;93.80;;;;;;4943112;29;20055;-92
2023/06/06 06:06:32;;;;;;;10.48;5.45;;;15.50;93.80;;;;;;4957984;28;20026;-91
2023/06/06 06:08:58;;;;;;;9.20;5.82;;;15.50;93.80;;;;;;4957308;28;20039;-93
2023/06/06 06:11:23;;;;;;;10.00;5.63;;;15.50;93.80;;;;;;4942894;29;20357;-93
2023/06/06 06:13:49;;;;;;;13.48;6.20;;;15.50;93.80;;;;;;4943210;29;20031;-92
2023/06/06 06:16:15;;;;;;;10.30;5.55;;;15.60;93.80;;;;;;4942469;29;20412;-93
2023/06/06 06:18:41;;;;;;;9.80;5.72;;;15.60;93.90;;;;;;4941660;29;20035;-93
2023/06/06 06:21:09;;;;;;;9.95;5.43;;;15.60;93.80;;;;;;4942123;29;20034;-93
2023/06/06 06:23:35;;;;;;;9.00;5.38;;;15.70;93.80;;;;;;4942256;29;20378;-93
2023/06/06 06:26:01;;;;;;;9.57;5.55;;;15.70;93.80;;;;;;4941837;29;20035;-93
2023/06/06 06:28:29;;;;;;;11.60;5.65;;;15.70;93.80;;;;;;4958420;28;20496;-91
2023/06/06 06:30:55;;;;;;;11.07;6.00;;;15.80;93.80;;;;;;4957759;28;20023;-93
2023/06/06 06:33:23;;;;;;;11.38;5.53;;;15.80;93.80;;;;;;4941633;29;20083;-93
2023/06/06 06:35:49;;;;;;;8.20;5.28;;;15.80;93.80;;;;;;4957450;28;20078;-92
2023/06/06 06:38:15;;;;;;;11.13;5.50;;;15.90;93.90;;;;;;4942227;29;20062;-93
2023/06/06 06:40:41;;;;;;;10.60;5.47;;;15.90;93.90;;;;;;4941626;29;20393;-93
2023/06/06 06:43:10;;;;;;;9.90;5.43;;;16.00;94.00;;;;;;4941263;29;20090;-93
2023/06/06 06:45:42;;;;;;;9.20;5.63;;;16.00;94.00;;;;;;4941432;29;20027;-91
2023/06/06 06:48:07;;;;;;;10.30;5.75;;;16.10;94.10;;;;;;4941150;29;20019;-90
2023/06/06 06:50:34;;;;;;;9.68;5.30;;;16.10;94.10;;;;;;4963500;28;20038;-94
2023/06/06 06:53:02;;;;;;;8.63;5.38;;;16.10;94.30;;;;;;4949976;29;20030;-94
2023/06/06 06:55:28;;;;;;;9.07;5.47;;;16.20;94.10;;;;;;4943103;29;20039;-93
2023/06/06 06:57:54;;;;;;;10.45;5.25;;;16.20;94.20;;;;;;4957069;28;20023;-93
2023/06/06 07:00:23;;;;;;;8.20;5.25;;;16.30;94.20;;;;;;4956598;28;20424;-91
2023/06/06 07:02:51;;;;;;;11.90;5.13;;;16.30;94.30;;;;;;4956409;28;20539;-92
2023/06/06 07:05:17;;;;;;;9.35;5.05;;;16.40;94.30;;;;;;4946856;28;20460;-93
2023/06/06 07:07:50;;;;;;;10.57;5.47;;;16.40;94.40;;;;;;4940808;29;20047;-92
2023/06/06 07:10:17;;;;;;;8.40;4.88;;;16.50;94.40;;;;;;4956507;29;20110;-92
2023/06/06 07:12:51;;;;;;;9.25;5.13;;;16.50;94.50;;;;;;4941009;29;20059;-93
2023/06/06 07:15:19;;;;;;;7.85;4.82;;;16.50;94.50;;;;;;4956714;29;20408;-94
2023/06/06 07:17:54;;;;;;;9.45;5.20;;;16.60;94.60;;;;;;4940871;29;20027;-92
2023/06/06 07:20:23;;;;;;;11.02;5.50;;;16.70;94.60;;;;;;4957736;28;20113;-93
2023/06/06 07:22:53;;;;;;;10.38;5.20;;;16.70;94.70;;;;;;4979042;28;20045;-91
2023/06/06 07:25:20;;;;;;;10.18;5.25;;;16.80;94.70;;;;;;4963426;28;20133;-91
2023/06/06 07:27:46;;;;;;;10.82;5.38;;;16.80;94.70;;;;;;4979264;28;20026;-92
2023/06/06 07:30:12;;;;;;;7.72;5.03;;;16.90;94.70;;;;;;4995205;28;20030;-91
2023/06/06 07:32:42;;;;;;;9.73;5.00;;;16.90;95.00;;;;;;4995058;28;20129;-91
2023/06/06 07:35:14;;;;;;;9.30;5.57;;;17.00;94.70;;;;;;4994560;28;20089;-93
2023/06/06 07:37:40;;;;;;;12.38;5.07;;;17.00;94.70;;;;;;4994447;28;20030;-92
2023/06/06 07:40:09;;;;;;;10.65;4.78;;;17.10;94.70;;;;;;4994442;28;20109;-91
2023/06/06 07:42:35;;;;;;;10.63;5.40;;;17.10;94.80;;;;;;4994271;28;20026;-92
2023/06/06 07:45:02;;;;;;;11.50;5.35;;;17.20;94.80;;;;;;4994513;28;20018;-92
2023/06/06 07:47:28;;;;;;;10.65;5.07;;;17.30;94.90;;;;;;4994812;28;20463;-90
2023/06/06 07:49:54;;;;;;;8.32;4.95;;;17.30;95.00;;;;;;4994362;28;20033;-89
2023/06/06 07:52:20;;;;;;;9.93;5.38;;;17.40;95.00;;;;;;4994598;28;20380;-90
2023/06/06 07:54:46;;;;;;;10.95;5.03;;;17.40;95.00;;;;;;4962761;28;20106;-90
2023/06/06 07:57:15;;;;;;;8.57;4.78;;;17.50;95.00;;;;;;4978995;28;20029;-89
2023/06/06 07:59:44;;;;;;;8.50;4.60;;;17.50;95.10;;;;;;4978661;28;20026;-90
2023/06/06 08:02:14;;;;;;;8.38;5.00;;;17.60;95.10;;;;;;4994068;28;20368;-92
2023/06/06 08:04:45;;;;;;;13.43;5.50;;;17.70;95.10;;;;;;4994317;28;20054;-92
2023/06/06 08:07:13;;;;;;;7.82;4.65;;;17.80;95.10;;;;;;4994134;28;20468;-92
2023/06/06 08:09:39;;;;;;;7.07;4.53;;;17.80;95.20;;;;;;4993883;28;20492;-92
2023/06/06 08:12:06;;;;;;;8.98;4.93;;;17.90;95.20;;;;;;5012212;28;20022;-93
2023/06/06 08:14:34;;;;;;;8.93;4.60;;;17.90;95.10;;;;;;4994850;28;20030;-92
2023/06/06 08:17:05;;;;;;;9.45;5.00;;;18.00;95.20;;;;;;4994842;28;20022;-91
2023/06/06 08:19:30;;;;;;;6.90;4.38;;;18.00;95.10;;;;;;4996005;28;20440;-91
2023/06/06 08:21:56;;;;;;;8.35;4.63;;;18.10;95.20;;;;;;4996509;28;20026;-92
2023/06/06 08:24:22;;;;;;;7.05;4.43;;;18.10;95.10;;;;;;4986385;28;20096;-90
2023/06/06 08:26:48;;;;;;;10.85;4.82;;;18.20;95.20;;;;;;4989573;28;20098;-90
2023/06/06 08:29:19;;;;;;;10.70;4.75;;;18.30;95.20;;;;;;5013905;28;20010;-91
2023/06/06 08:31:45;;;;;;;7.97;4.75;;;18.30;95.20;;;;;;4981841;28;20467;-92
2023/06/06 08:34:11;;;;;;;9.90;4.50;;;18.40;95.20;;;;;;4982618;28;20096;-90
2023/06/06 08:36:37;;;;;;;11.00;5.15;;;18.50;95.20;;;;;;4981955;28;20034;-89
2023/06/06 08:39:06;;;;;;;7.85;4.32;;;18.50;95.30;;;;;;4998825;28;20414;-93
2023/06/06 08:41:34;;;;;;;11.32;4.75;;;18.60;95.30;;;;;;4967168;28;20122;-91
2023/06/06 08:44:02;;;;;;;10.02;4.75;;;18.60;95.20;;;;;;4981853;28;20121;-92
2023/06/06 08:46:33;;;;;;;8.50;4.78;;;18.70;95.20;;;;;;4998305;28;20022;-92
2023/06/06 08:49:03;;;;;;;7.72;4.53;;;18.70;94.90;;;;;;4999171;28;20117;-89
2023/06/06 08:51:31;;;;;;;8.30;4.85;;;18.80;95.00;;;;;;4998333;28;20023;-89
2023/06/06 08:53:59;;;;;;;10.75;4.57;;;18.80;95.00;;;;;;4981494;28;20037;-89
2023/06/06 08:56:26;;;;;;;8.15;4.20;;;18.90;95.00;;;;;;4998181;28;20030;-90
2023/06/06 08:58:52;;;;;;;8.88;4.03;;;18.90;95.10;;;;;;4981509;28;20113;-90
2023/06/06 09:01:20;;;;;;;6.85;3.53;;;19.00;95.20;;;;;;4999371;28;20049;-93
2023/06/06 09:03:48;;;;;;;7.68;4.15;;;19.10;95.30;;;;;;4989342;28;20049;-92
2023/06/06 09:06:23;;;;;;;8.52;4.50;;;19.20;95.40;;;;;;5009375;28;20034;-93
2023/06/06 09:08:55;;;;;;;7.78;4.78;;;19.30;95.40;;;;;;5008201;28;20506;-92
2023/06/06 09:11:24;;;;;;;7.75;4.55;;;19.30;95.30;;;;;;4998393;28;20022;-93
2023/06/06 09:13:50;;;;;;;11.32;4.57;;;19.40;95.20;;;;;;4982609;28;20088;-92
2023/06/06 09:16:26;;;;;;;6.93;4.25;;;19.40;95.10;;;;;;4984442;28;20061;-92
2023/06/06 09:25:42;;;;;;;9.70;4.57;;;19.60;95.00;;;;;;4982141;28;20028;-92
2023/06/06 09:28:08;;;;;;;7.43;4.40;;;19.60;94.90;;;;;;4998434;28;20026;-92
2023/06/06 09:30:35;;;;;;;10.90;4.38;;;19.70;94.90;;;;;;4998630;28;20101;-93
2023/06/06 09:33:03;;;;;;;9.88;4.97;;;19.70;94.70;;;;;;4981348;28;20399;-89
2023/06/06 09:35:43;;;;;;;8.38;4.65;;;19.80;94.60;;;;;;4997074;28;20109;-90
2023/06/06 09:38:21;;;;;;;11.07;4.75;;;19.90;94.40;;;;;;4997040;28;20050;-90
2023/06/06 09:40:50;;;;;;;8.68;4.50;;;19.90;94.20;;;;;;4981018;28;20041;-89
2023/06/06 09:43:22;;;;;;;8.00;4.47;;;20.00;94.20;;;;;;4995762;28;20035;-90
2023/06/06 09:45:52;;;;;;;8.20;4.22;;;20.10;94.00;;;;;;4997205;28;20077;-91
2023/06/06 09:48:22;;;;;;;7.53;4.07;;;20.10;93.70;;;;;;5000322;28;20018;-91
2023/06/06 09:50:51;;;;;;;11.15;4.45;;;20.20;93.60;;;;;;4997857;28;20027;-90
2023/06/06 09:53:17;;;;;;;8.75;4.60;;;20.30;93.60;;;;;;5000696;28;20033;-89
2023/06/06 09:55:44;;;;;;;8.98;4.68;;;20.30;93.50;;;;;;4997406;28;20332;-90
2023/06/06 09:58:17;;;;;;;8.98;4.43;;;20.40;93.40;;;;;;5001433;28;20050;-90
2023/06/06 10:00:44;;;;;;;10.50;4.38;;;20.40;93.30;;;;;;4997071;28;20121;-90
2023/06/06 10:03:22;;;;;;;6.97;4.20;;;20.50;93.10;;;;;;4980242;28;20023;-90
2023/06/06 10:05:59;;;;;;;8.35;4.30;;;20.60;93.00;;;;;;4998430;28;20029;-92
2023/06/06 10:08:28;;;;;;;8.93;4.32;;;20.60;93.00;;;;;;4980268;28;20078;-93
2023/06/06 10:11:20;;;;;;;10.25;4.28;;;20.70;92.90;;;;;;4997179;28;20022;-95
2023/06/06 10:13:47;;;;;;;7.78;4.07;;;20.80;92.90;;;;;;4997022;28;20026;-93
2023/06/06 10:16:14;;;;;;;9.00;3.95;;;20.90;92.80;;;;;;4981794;28;20062;-92
2023/06/06 10:18:41;;;;;;;8.25;4.10;;;20.90;92.70;;;;;;4996768;28;20048;-92
2023/06/06 10:21:08;;;;;;;9.43;4.30;;;21.00;92.70;;;;;;5001488;28;20066;-91
2023/06/06 10:23:34;;;;;;;6.82;4.40;;;21.10;92.50;;;;;;5020235;28;20034;-91
2023/06/06 10:26:01;;;;;;;7.63;3.70;;;21.10;92.30;;;;;;5020270;28;20010;-91
2023/06/06 10:28:36;;;;;;;6.20;4.00;;;21.20;92.20;;;;;;5020267;28;20010;-91
2023/06/06 10:31:15;;;;;;;7.72;4.45;;;21.20;92.10;;;;;;5020382;28;20106;-89
2023/06/06 10:34:14;;;;;;;7.85;4.07;;;21.30;92.10;;;;;;5031079;23;20046;-92
2023/06/06 10:36:51;;;;;;;10.35;4.65;;;21.40;92.10;;;;;;5000622;28;20019;-91
2023/06/06 10:39:20;;;;;;;9.95;4.22;;;21.50;91.80;;;;;;4967352;28;20391;-93
2023/06/06 10:41:53;;;;;;;9.02;4.13;;;21.50;91.90;;;;;;4976454;28;20031;-92
2023/06/06 10:44:35;;;;;;;11.70;4.78;;;21.60;91.70;;;;;;4976712;28;20058;-93
2023/06/06 10:47:23;;;;;;;7.90;4.00;;;21.70;91.60;;;;;;4978995;28;20026;-94
2023/06/06 10:50:08;;;;;;;8.70;3.75;;;21.80;91.50;;;;;;4976517;28;20023;-93
2023/06/06 10:52:54;;;;;;;6.50;3.78;;;21.80;91.30;;;;;;4976760;28;20033;-92
2023/06/06 10:55:23;;;;;;;9.30;4.28;;;21.90;91.30;;;;;;4976495;28;20034;-90
2023/06/06 10:58:15;;;;;;;8.25;4.47;;;22.00;91.20;;;;;;4976432;28;20365;-90
2023/06/06 11:00:46;;;;;;;8.23;3.83;;;22.00;91.10;;;;;;4980144;28;20050;-93
2023/06/06 11:03:19;;;;;;;7.68;3.97;;;22.10;91.00;;;;;;4996096;28;20026;-92
2023/06/06 11:06:00;;;;;;;8.32;4.22;;;22.20;91.00;;;;;;4996330;28;20025;-93
2023/06/06 11:08:38;;;;;;;10.15;4.13;;;22.20;90.80;;;;;;4995605;28;20026;-92
2023/06/06 11:11:19;;;;;;;9.32;4.25;;;22.30;90.70;;;;;;4994074;28;20019;-93
2023/06/06 11:14:00;;;;;;;11.75;4.22;;;22.40;90.80;;;;;;4983510;28;20031;-92
2023/06/06 11:16:30;;;;;;;7.47;3.92;;;22.40;90.70;;;;;;4975975;28;20081;-93
2023/06/06 11:19:06;;;;;;;5.85;3.92;;;22.40;90.70;;;;;;4963817;28;20034;-92
2023/06/06 11:21:38;;;;;;;9.73;3.95;;;22.50;90.60;;;;;;4956584;29;20016;-93
2023/06/06 11:24:05;;;;;;;12.95;4.13;;;22.50;90.60;;;;;;4974874;28;20073;-93
2023/06/06 11:26:35;;;;;;;8.05;4.10;;;22.60;90.60;;;;;;4975986;28;20070;-93
2023/06/06 11:29:02;;;;;;;9.68;4.03;;;22.70;90.40;;;;;;4998372;28;20018;-92
2023/06/06 11:31:28;;;;;;;9.35;4.35;;;22.80;90.20;;;;;;5005872;28;20023;-92
2023/06/06 11:34:07;;;;;;;8.23;4.00;;;22.80;90.10;;;;;;4979166;28;20047;-93
2023/06/06 11:36:34;;;;;;;8.68;3.95;;;22.90;90.10;;;;;;4957113;29;20082;-92
2023/06/06 11:39:04;;;;;;;7.57;3.88;;;22.90;90.10;;;;;;4957188;29;20078;-92
2023/06/06 11:41:33;;;;;;;10.57;3.97;;;23.00;90.00;;;;;;4956655;29;20031;-92
2023/06/06 11:43:59;;;;;;;7.95;3.63;;;23.10;90.00;;;;;;4940930;29;20122;-91
2023/06/06 11:46:25;;;;;;;8.52;3.90;;;23.10;89.80;;;;;;4955942;29;20058;-93
2023/06/06 11:48:58;;;;;;;8.68;3.72;;;23.20;89.60;;;;;;4956750;28;20043;-93
2023/06/06 11:51:24;;;;;;;7.45;3.30;;;23.20;89.50;;;;;;4956180;29;20190;-94
2023/06/06 11:53:49;;;;;;;8.75;3.70;;;23.30;89.30;;;;;;4955794;29;20028;-93
2023/06/06 11:56:19;;;;;;;9.00;3.60;;;23.30;88.80;;;;;;4959084;29;20134;-87
2023/06/06 11:58:53;;;;;;;10.13;4.10;;;23.40;88.50;;;;;;4947396;29;20039;-88
2023/06/06 12:01:46;;;;;;;6.15;3.90;;;23.40;87.90;;;;;;4953673;29;20122;-92
2023/06/06 12:04:21;;;;;;;8.63;3.83;;;23.50;87.70;;;;;;4942177;29;20031;-92
2023/06/06 12:10:37;;;;;;;6.90;3.78;;;23.60;87.20;;;;;;4957618;29;20086;-92
2023/06/06 12:13:08;;;;;;;7.45;3.30;;;23.70;86.40;;;;;;4955267;29;20027;-87
2023/06/06 12:16:22;;;;;;;5.95;3.58;;;23.70;86.60;;;;;;4938776;29;20507;-88
2023/06/06 12:18:57;;;;;;;7.70;3.92;;;23.80;87.00;;;;;;4950214;29;20043;-88
2023/06/06 12:21:52;;;;;;;7.72;3.70;;;23.90;86.80;;;;;;4955251;29;20028;-89
2023/06/06 12:24:50;;;;;;;7.35;3.33;;;23.90;86.50;;;;;;4954900;29;20027;-89
2023/06/06 12:27:38;;;;;;;9.93;3.83;;;24.00;86.70;;;;;;4950031;29;20062;-89
2023/06/06 12:30:05;;;;;;;9.13;3.72;;;24.00;86.40;;;;;;4940525;29;20043;-89
2023/06/06 12:32:31;;;;;;;7.07;3.83;;;24.10;86.30;;;;;;4955767;28;20044;-89
2023/06/06 12:35:19;;;;;;;7.35;3.33;;;24.10;85.70;;;;;;4963756;28;20131;-92
2023/06/06 12:37:55;;;;;;;6.07;3.85;;;24.20;85.40;;;;;;5014672;28;20078;-92
2023/06/06 12:40:35;;;;;;;7.03;3.58;;;24.20;84.90;;;;;;4998324;28;20023;-91
2023/06/06 12:43:06;;;;;;;12.02;3.25;;;24.30;84.90;;;;;;5014375;28;20082;-92
2023/06/06 12:45:37;;;;;;;9.27;4.18;;;24.30;85.00;;;;;;4998000;28;20026;-92
2023/06/06 12:48:08;;;;;;;8.10;3.65;;;24.40;84.90;;;;;;4978128;28;20122;-92
2023/06/06 12:50:43;;;;;;;11.77;3.42;;;24.40;84.40;;;;;;4963667;28;20062;-92
2023/06/06 12:53:12;;;;;;;10.00;3.75;;;24.50;84.30;;;;;;4956959;29;20031;-90
2023/06/06 12:55:44;;;;;;;7.13;3.63;;;24.50;84.20;;;;;;4938910;29;20071;-90
2023/06/06 13:01:38;;;;;;;6.93;3.20;;;24.70;84.00;;;;;;4958946;29;20031;-91
2023/06/06 13:07:25;;;;;;;8.15;3.45;;;24.80;83.00;;;;;;4962032;29;20038;-90
2023/06/06 13:09:53;;;;;;;5.80;3.42;;;24.80;82.80;;;;;;4938702;29;20384;-88
2023/06/06 13:12:20;;;;;;;7.03;3.75;;;24.80;82.20;;;;;;4939004;29;20032;-89
2023/06/06 13:15:10;;;;;;;10.07;3.30;;;24.90;82.60;;;;;;4938623;29;20461;-89
2023/06/06 13:17:42;;;;;;;6.95;3.33;;;25.00;81.90;;;;;;4954266;28;20031;-89